Overview Statistics Trail Chart Weather Telemetry Raw packets
 

This is the latest recevied weather packets stored in our database for station/object DL2AMT-9. If no packets are shown the sender has not sent any weather packets the latest 10 day(s).

<< 1 2 3 4 >>
Time Temp. Humidity Pressure Rain* Wind** Luminosity Snow
1777908872 30° C 30% 966.6 hPa - - - -
1777908572 30.56° C 30% 966.6 hPa - - - -
1777908271 31.67° C 29% 966.6 hPa - - - -
1777907972 33.33° C 28% 966.7 hPa - - - -
1777907671 36.11° C 28% 966.9 hPa - - - -
1777901918 35° C 30% 975 hPa - - - -
1777901618 35° C 30% 975.1 hPa - - - -
1777901318 35° C 30% 975 hPa - - - -
1777901018 35.56° C 29% 975.1 hPa - - - -
1777900370 33.89° C 30% 967.7 hPa - - - -
1777899770 36.11° C 30% 967.7 hPa - - - -
1777899131 35° C 30% 967.9 hPa - - - -
1777898831 33.89° C 30% 967.9 hPa - - - -
1777898531 35° C 29% 967.9 hPa - - - -
1777895197 31.67° C 34% 968 hPa - - - -
1777894897 31.67° C 34% 968.1 hPa - - - -
1777894597 31.11° C 34% 968.1 hPa - - - -
1777894297 31.11° C 32% 968.1 hPa - - - -
1777893996 31.11° C 32% 968.1 hPa - - - -
1777893696 31.11° C 32% 968.2 hPa - - - -
1777893396 31.11° C 32% 968.2 hPa - - - -
1777893096 31.67° C 33% 968.2 hPa - - - -
1777892796 31.67° C 32% 968.3 hPa - - - -
1777892201 31.11° C 30% 968.4 hPa - - - -
1777891901 31.67° C 30% 968.5 hPa - - - -

* Rain since midnight (hover to see other rain measurements)
** Current wind speed in m/s (hover to see current wind gust speed)